createdAt,value
2023-03-25T00:01:03.927Z,12.25
2023-03-25T00:03:33.734Z,12.31
2023-03-25T00:06:00.411Z,12.21
2023-03-25T00:08:27.366Z,11.93
2023-03-25T00:10:54.809Z,12.19
2023-03-25T00:13:21.529Z,12.07
2023-03-25T00:15:48.659Z,12.37
2023-03-25T00:18:18.374Z,11.98
2023-03-25T00:20:45.965Z,11.76
2023-03-25T00:23:13.050Z,11.78
2023-03-25T00:25:39.593Z,11.86
2023-03-25T00:28:06.088Z,12.03
2023-03-25T00:30:32.590Z,12.11
2023-03-25T00:33:01.651Z,12.33
2023-03-25T00:35:29.021Z,11.89
2023-03-25T00:38:00.222Z,11.66
2023-03-25T00:40:28.494Z,11.75
2023-03-25T00:42:55.579Z,11.84
2023-03-25T00:45:22.304Z,11.69
2023-03-25T00:47:48.778Z,11.58
2023-03-25T00:50:15.430Z,11.60
2023-03-25T00:52:41.906Z,11.60
2023-03-25T00:55:08.520Z,11.44
2023-03-25T00:57:35.308Z,11.32
2023-03-25T01:00:02.091Z,11.33
2023-03-25T01:02:28.671Z,11.40
2023-03-25T01:04:57.614Z,11.33
2023-03-25T01:07:24.170Z,11.36
2023-03-25T01:09:50.953Z,11.54
2023-03-25T01:12:18.971Z,11.49
2023-03-25T01:14:46.340Z,11.50
2023-03-25T01:17:14.580Z,11.49
2023-03-25T01:19:41.171Z,11.36
2023-03-25T01:22:07.874Z,11.35
2023-03-25T01:24:35.079Z,11.19
2023-03-25T01:27:01.602Z,11.11
2023-03-25T01:29:28.881Z,11.11
2023-03-25T01:31:55.675Z,11.04
2023-03-25T01:34:22.230Z,10.94
2023-03-25T01:36:49.697Z,10.99
2023-03-25T01:39:18.779Z,11.03
2023-03-25T01:41:50.068Z,11.13
2023-03-25T01:44:20.613Z,11.04
2023-03-25T01:46:49.404Z,11.24
2023-03-25T01:49:23.451Z,11.04
2023-03-25T01:52:05.471Z,11.11
2023-03-25T01:54:32.821Z,11.11
2023-03-25T01:56:59.499Z,11.00
2023-03-25T01:59:27.195Z,11.10
2023-03-25T02:01:55.295Z,11.15
2023-03-25T02:04:27.292Z,11.15
2023-03-25T02:06:54.406Z,11.32
2023-03-25T02:09:22.637Z,11.24
2023-03-25T02:11:49.228Z,11.15
2023-03-25T02:14:18.794Z,11.19
2023-03-25T02:16:55.257Z,11.15
2023-03-25T02:19:40.915Z,11.17
2023-03-25T02:22:17.175Z,11.22
2023-03-25T02:24:54.491Z,11.31
2023-03-25T02:27:27.621Z,11.48
2023-03-25T02:30:11.136Z,11.28
2023-03-25T02:32:40.715Z,11.32
2023-03-25T02:35:07.545Z,11.46
2023-03-25T02:37:34.285Z,11.36
2023-03-25T02:40:07.070Z,11.49
2023-03-25T02:42:33.543Z,11.77
2023-03-25T02:45:08.916Z,11.65
2023-03-25T02:47:37.764Z,11.88
2023-03-25T02:50:07.835Z,11.79
2023-03-25T02:52:39.755Z,11.64
2023-03-25T02:55:10.369Z,11.75
2023-03-25T02:57:42.080Z,11.64
2023-03-25T03:00:15.515Z,11.71
2023-03-25T03:02:45.333Z,11.75
2023-03-25T03:05:23.352Z,11.80
2023-03-25T03:07:51.935Z,11.74
2023-03-25T03:10:35.197Z,11.56
2023-03-25T03:13:08.728Z,11.53
2023-03-25T03:15:41.310Z,11.60
2023-03-25T03:18:14.344Z,11.53
2023-03-25T03:20:44.315Z,11.72
2023-03-25T03:23:18.051Z,11.57
2023-03-25T03:25:54.004Z,11.64
2023-03-25T03:28:35.908Z,11.58
2023-03-25T03:31:15.458Z,11.57
2023-03-25T03:34:05.613Z,11.56
2023-03-25T03:36:37.331Z,11.43
2023-03-25T03:39:10.914Z,11.52
2023-03-25T03:41:41.288Z,11.55
2023-03-25T03:44:10.988Z,11.66
2023-03-25T03:46:40.052Z,11.35
2023-03-25T03:49:09.465Z,11.42
2023-03-25T03:51:38.151Z,11.20
2023-03-25T03:54:08.193Z,11.42
2023-03-25T03:56:54.927Z,11.41
2023-03-25T03:59:30.404Z,11.36
2023-03-25T04:01:59.918Z,11.99
2023-03-25T04:04:26.818Z,11.65
2023-03-25T04:07:10.763Z,11.17
2023-03-25T04:09:41.875Z,11.35
2023-03-25T04:12:11.330Z,11.38
2023-03-25T04:14:37.979Z,11.20
2023-03-25T04:17:04.946Z,11.24
2023-03-25T04:19:34.048Z,11.07
2023-03-25T04:22:01.686Z,11.05
2023-03-25T04:24:31.439Z,11.18
2023-03-25T04:26:59.817Z,11.24
2023-03-25T04:29:26.232Z,11.31
2023-03-25T04:31:56.163Z,11.19
2023-03-25T04:34:22.886Z,11.30
2023-03-25T04:36:52.427Z,11.20
2023-03-25T04:39:22.442Z,11.16
2023-03-25T04:41:49.880Z,11.64
2023-03-25T04:44:16.960Z,11.10
2023-03-25T04:46:43.705Z,11.03
2023-03-25T04:49:19.120Z,11.06
2023-03-25T04:51:45.623Z,11.22
2023-03-25T04:54:12.224Z,11.11
2023-03-25T04:56:39.785Z,11.15
2023-03-25T04:59:06.508Z,11.13
2023-03-25T05:01:33.071Z,11.31
2023-03-25T05:04:05.076Z,11.15
2023-03-25T05:06:35.526Z,10.88
2023-03-25T05:09:04.216Z,10.98
2023-03-25T05:11:31.741Z,11.01
2023-03-25T05:13:58.191Z,11.02
2023-03-25T05:16:24.782Z,10.90
2023-03-25T05:18:51.299Z,11.08
2023-03-25T05:21:17.940Z,11.00
2023-03-25T05:23:44.854Z,11.14
2023-03-25T05:26:14.825Z,10.82
2023-03-25T05:28:42.330Z,10.84
2023-03-25T05:31:08.966Z,10.86
2023-03-25T05:33:37.179Z,11.08
2023-03-25T05:36:04.560Z,11.10
2023-03-25T05:38:33.150Z,11.10
2023-03-25T05:41:00.387Z,11.07
2023-03-25T05:43:26.853Z,11.00
2023-03-25T05:45:53.601Z,10.93
2023-03-25T05:48:20.296Z,10.98
2023-03-25T05:50:46.733Z,10.80
2023-03-25T05:53:15.512Z,11.06
2023-03-25T05:55:42.089Z,11.08
2023-03-25T05:58:08.618Z,10.95
2023-03-25T06:00:37.167Z,10.54
2023-03-25T06:03:06.346Z,10.66
2023-03-25T06:05:33.793Z,10.81
2023-03-25T06:08:01.806Z,10.75
2023-03-25T06:10:28.270Z,10.78
2023-03-25T06:12:55.141Z,11.08
2023-03-25T06:15:28.930Z,11.08
2023-03-25T06:17:56.801Z,11.06
2023-03-25T06:20:23.394Z,11.10
2023-03-25T06:22:49.947Z,11.17
2023-03-25T06:25:18.879Z,11.22
2023-03-25T06:27:45.963Z,11.19
2023-03-25T06:30:17.431Z,11.42
2023-03-25T06:32:44.082Z,11.43
2023-03-25T06:35:11.666Z,11.69
2023-03-25T06:37:38.807Z,11.40
2023-03-25T06:40:11.286Z,11.58
2023-03-25T06:42:38.128Z,11.69
2023-03-25T06:45:42.972Z,11.79
2023-03-25T06:48:19.323Z,12.00
2023-03-25T06:50:45.994Z,12.17
2023-03-25T06:53:12.602Z,12.16
2023-03-25T06:55:39.327Z,12.35
2023-03-25T06:58:06.038Z,12.33
2023-03-25T07:00:32.594Z,12.32
2023-03-25T07:02:59.178Z,12.12
2023-03-25T07:05:26.024Z,12.38
2023-03-25T07:07:52.509Z,12.26
2023-03-25T07:10:19.235Z,11.94
2023-03-25T07:12:46.006Z,11.78
2023-03-25T07:15:12.748Z,11.80
2023-03-25T07:17:43.092Z,12.02
2023-03-25T07:20:12.495Z,12.00
2023-03-25T07:22:40.063Z,12.52
2023-03-25T07:25:06.642Z,12.41
2023-03-25T07:27:33.169Z,12.38
2023-03-25T07:30:06.024Z,12.43
2023-03-25T07:32:32.589Z,12.58
2023-03-25T07:34:59.192Z,12.49
2023-03-25T07:37:25.686Z,12.30
2023-03-25T07:39:52.160Z,12.45
2023-03-25T07:42:18.630Z,12.50
2023-03-25T07:45:12.017Z,12.75
2023-03-25T07:47:40.792Z,12.87
2023-03-25T07:50:07.739Z,13.00
2023-03-25T07:52:36.095Z,13.38
2023-03-25T07:55:02.598Z,13.79
2023-03-25T07:57:29.093Z,14.10
2023-03-25T07:59:55.602Z,14.24
2023-03-25T08:02:22.073Z,14.34
2023-03-25T08:04:48.560Z,14.36
2023-03-25T08:07:15.454Z,14.52
2023-03-25T08:09:42.480Z,14.98
2023-03-25T08:12:09.590Z,14.65
2023-03-25T08:14:36.130Z,15.09
2023-03-25T08:17:02.697Z,14.55
2023-03-25T08:19:29.179Z,14.69
2023-03-25T08:21:56.021Z,14.31
2023-03-25T08:24:24.561Z,14.15
2023-03-25T08:26:51.036Z,14.00
2023-03-25T08:29:17.914Z,13.79
2023-03-25T08:31:46.787Z,13.73
2023-03-25T08:34:13.794Z,13.54
2023-03-25T08:36:40.237Z,13.48
2023-03-25T08:39:11.614Z,13.43
2023-03-25T08:41:39.062Z,13.38
2023-03-25T08:44:06.069Z,13.19
2023-03-25T08:46:32.687Z,13.19
2023-03-25T08:48:59.160Z,13.00
2023-03-25T08:51:25.956Z,13.02
2023-03-25T08:53:52.423Z,12.98
2023-03-25T08:56:18.872Z,13.04
2023-03-25T08:58:45.572Z,12.66
2023-03-25T09:01:12.264Z,12.31
2023-03-25T09:03:40.873Z,12.31
2023-03-25T09:06:08.149Z,12.26
2023-03-25T09:08:34.929Z,12.25
2023-03-25T09:11:01.488Z,12.14
2023-03-25T09:13:28.224Z,12.13
2023-03-25T09:15:54.937Z,12.09
2023-03-25T09:18:21.588Z,12.17
2023-03-25T09:20:48.380Z,12.21
2023-03-25T09:23:15.371Z,12.29
2023-03-25T09:25:42.946Z,11.92
2023-03-25T09:28:09.434Z,11.95
2023-03-25T09:30:35.906Z,12.07
2023-03-25T09:33:02.745Z,12.25
2023-03-25T09:35:29.263Z,11.94
2023-03-25T09:37:55.944Z,11.74
2023-03-25T09:40:22.645Z,11.90
2023-03-25T09:42:58.523Z,11.75
2023-03-25T09:45:29.208Z,11.68
2023-03-25T09:48:03.118Z,11.71
2023-03-25T09:50:30.811Z,11.73
2023-03-25T09:53:04.893Z,11.65
2023-03-25T09:55:34.367Z,11.60
2023-03-25T09:58:05.016Z,11.62
2023-03-25T10:00:31.771Z,11.57
2023-03-25T10:03:16.782Z,11.73
2023-03-25T10:05:49.799Z,11.57
2023-03-25T10:08:22.763Z,12.30
2023-03-25T10:10:55.539Z,11.61
2023-03-25T10:13:25.485Z,12.15
2023-03-25T10:15:58.987Z,11.95
2023-03-25T10:18:28.358Z,11.94
2023-03-25T10:21:04.094Z,11.91
2023-03-25T10:23:30.566Z,11.85
2023-03-25T10:26:01.121Z,11.68
2023-03-25T10:28:31.219Z,11.74
2023-03-25T10:30:57.811Z,11.99
2023-03-25T10:33:24.237Z,11.96
2023-03-25T10:35:50.957Z,12.02
2023-03-25T10:38:24.172Z,11.85
2023-03-25T10:40:52.974Z,11.73
2023-03-25T10:43:22.530Z,11.67
2023-03-25T10:45:50.264Z,11.38
2023-03-25T10:48:21.366Z,11.37
2023-03-25T10:50:49.086Z,11.21
2023-03-25T10:53:21.478Z,11.22
2023-03-25T10:55:52.859Z,11.38
2023-03-25T10:58:19.427Z,11.41
2023-03-25T11:00:46.068Z,11.66
2023-03-25T11:03:22.167Z,11.71
2023-03-25T11:05:49.258Z,11.93
2023-03-25T11:08:24.431Z,11.86
2023-03-25T11:10:56.988Z,11.66
2023-03-25T11:13:25.135Z,11.64
2023-03-25T11:15:53.530Z,11.77
2023-03-25T11:18:28.866Z,11.80
2023-03-25T11:21:09.322Z,11.70
2023-03-25T11:23:49.960Z,11.82
2023-03-25T11:26:24.722Z,11.78
2023-03-25T11:28:56.078Z,12.08
2023-03-25T11:31:27.695Z,11.66
2023-03-25T11:34:03.495Z,11.66
2023-03-25T11:36:31.088Z,11.54
2023-03-25T11:38:59.500Z,12.28
2023-03-25T11:41:30.721Z,12.14
2023-03-25T11:43:57.397Z,11.58
2023-03-25T11:46:24.591Z,11.45
2023-03-25T11:48:51.427Z,11.52
2023-03-25T11:51:23.015Z,11.63
2023-03-25T11:53:55.325Z,11.50
2023-03-25T11:56:23.409Z,11.73
2023-03-25T11:58:50.739Z,11.65
2023-03-25T12:01:21.403Z,12.10
2023-03-25T12:03:48.084Z,12.20
2023-03-25T12:06:19.365Z,12.48
2023-03-25T12:08:59.822Z,12.27
2023-03-25T12:11:51.920Z,12.20
2023-03-25T12:14:37.315Z,12.14
2023-03-25T12:17:12.791Z,12.38
2023-03-25T12:19:51.823Z,12.23
2023-03-25T12:22:21.353Z,12.23
2023-03-25T12:24:47.789Z,12.14
2023-03-25T12:27:17.297Z,12.04
2023-03-25T12:29:50.240Z,11.93
2023-03-25T12:32:25.447Z,11.94
2023-03-25T12:35:10.833Z,12.26
2023-03-25T12:37:49.691Z,12.24
2023-03-25T12:40:30.539Z,12.11
2023-03-25T12:43:17.212Z,12.03
2023-03-25T12:45:49.683Z,12.09
2023-03-25T12:48:16.205Z,12.34
2023-03-25T12:50:52.108Z,12.21
2023-03-25T12:53:41.016Z,12.39
2023-03-25T12:56:29.788Z,12.58
2023-03-25T12:59:00.011Z,13.00
2023-03-25T13:01:49.275Z,13.27
2023-03-25T13:04:25.344Z,14.00
2023-03-25T13:07:04.291Z,14.15
2023-03-25T13:09:36.903Z,13.86
2023-03-25T13:12:09.016Z,13.69
2023-03-25T13:14:35.622Z,13.63
2023-03-25T13:17:05.503Z,13.67
2023-03-25T13:19:39.234Z,13.99
2023-03-25T13:22:13.583Z,13.87
2023-03-25T13:24:46.111Z,15.84
2023-03-25T13:27:13.748Z,16.50
2023-03-25T13:29:44.444Z,16.70
2023-03-25T13:32:33.821Z,16.06
2023-03-25T13:35:07.162Z,17.48
2023-03-25T13:37:38.783Z,17.33
2023-03-25T13:40:11.804Z,17.23
2023-03-25T13:42:43.211Z,17.19
2023-03-25T13:45:15.897Z,17.23
2023-03-25T13:47:44.646Z,17.43
2023-03-25T13:50:17.481Z,17.54
2023-03-25T13:52:46.764Z,17.51
2023-03-25T13:55:15.616Z,17.71
2023-03-25T13:58:17.747Z,18.58
2023-03-25T14:00:53.433Z,18.23
2023-03-25T14:03:20.548Z,18.39
2023-03-25T14:06:07.734Z,18.78
2023-03-25T14:08:34.174Z,18.80
2023-03-25T14:11:15.953Z,18.57
2023-03-25T14:13:45.142Z,19.10
2023-03-25T14:16:16.280Z,18.19
2023-03-25T14:18:50.714Z,18.39
2023-03-25T14:21:28.266Z,18.61
2023-03-25T14:24:03.392Z,18.91
2023-03-25T14:26:29.969Z,19.07
2023-03-25T14:28:58.129Z,19.54
2023-03-25T14:31:32.330Z,19.35
2023-03-25T14:34:04.856Z,18.20
2023-03-25T14:36:51.879Z,17.21
2023-03-25T14:39:21.478Z,17.24
2023-03-25T14:42:00.402Z,17.12
2023-03-25T14:44:29.247Z,17.49
2023-03-25T14:47:02.177Z,17.19
2023-03-25T14:49:47.115Z,17.68
2023-03-25T14:52:15.751Z,17.13
2023-03-25T14:54:43.698Z,16.88
2023-03-25T14:57:23.015Z,16.71
2023-03-25T15:00:09.388Z,16.12
2023-03-25T15:02:37.502Z,17.06
2023-03-25T15:05:13.728Z,17.26
2023-03-25T15:07:48.116Z,16.91
2023-03-25T15:10:25.392Z,17.37
2023-03-25T15:12:55.300Z,17.71
2023-03-25T15:15:29.669Z,17.11
2023-03-25T15:17:57.372Z,17.48
2023-03-25T15:20:26.333Z,17.74
2023-03-25T15:23:12.049Z,18.01
2023-03-25T15:25:39.171Z,17.86
2023-03-25T15:28:16.145Z,18.02
2023-03-25T15:30:54.755Z,18.13
2023-03-25T15:33:21.504Z,18.20
2023-03-25T15:35:51.709Z,18.53
2023-03-25T15:38:24.694Z,18.96
2023-03-25T15:41:16.564Z,18.17
2023-03-25T15:43:57.825Z,18.39
2023-03-25T15:46:30.626Z,18.37
2023-03-25T15:49:16.240Z,17.60
2023-03-25T15:52:02.397Z,18.23
2023-03-25T15:54:38.062Z,18.30
2023-03-25T15:57:24.262Z,18.22
2023-03-25T16:00:06.500Z,17.57
2023-03-25T16:02:39.177Z,17.96
2023-03-25T16:05:07.064Z,17.82
2023-03-25T16:07:34.151Z,17.41
2023-03-25T16:10:05.203Z,17.57
2023-03-25T16:12:31.696Z,16.92
2023-03-25T16:14:58.906Z,16.61
2023-03-25T16:17:29.073Z,16.42
2023-03-25T16:19:56.421Z,16.48
2023-03-25T16:22:27.703Z,16.16
2023-03-25T16:24:56.147Z,15.77
2023-03-25T16:27:29.365Z,15.45
2023-03-25T16:29:56.779Z,15.32
2023-03-25T16:32:24.701Z,14.99
2023-03-25T16:34:53.999Z,14.75
2023-03-25T16:37:21.747Z,14.63
2023-03-25T16:39:52.439Z,14.47
2023-03-25T16:42:32.782Z,14.78
2023-03-25T16:44:59.301Z,14.69
2023-03-25T16:47:25.860Z,14.39
2023-03-25T16:49:54.014Z,14.27
2023-03-25T16:52:23.999Z,14.40
2023-03-25T16:54:50.448Z,14.23
2023-03-25T16:57:18.773Z,13.99
2023-03-25T16:59:46.728Z,13.99
2023-03-25T17:02:27.266Z,14.10
2023-03-25T17:04:55.937Z,14.04
2023-03-25T17:07:29.634Z,14.10
2023-03-25T17:09:58.153Z,14.09
2023-03-25T17:12:26.316Z,13.98
2023-03-25T17:14:56.546Z,13.98
2023-03-25T17:17:23.034Z,14.08
2023-03-25T17:19:51.508Z,13.70
2023-03-25T17:22:26.114Z,13.15
2023-03-25T17:25:11.839Z,13.27
2023-03-25T17:27:39.185Z,13.23
2023-03-25T17:30:31.950Z,12.28
2023-03-25T17:33:13.218Z,11.93
2023-03-25T17:35:41.535Z,11.94
2023-03-25T17:38:13.032Z,11.91
2023-03-25T17:40:40.107Z,11.65
2023-03-25T17:43:06.603Z,11.40
2023-03-25T17:45:33.121Z,11.27
2023-03-25T17:47:59.626Z,11.44
2023-03-25T17:50:27.601Z,11.43
2023-03-25T17:52:55.251Z,11.20
2023-03-25T17:55:21.976Z,11.17
2023-03-25T17:57:49.825Z,10.47
2023-03-25T18:00:18.737Z,10.22
2023-03-25T18:02:46.615Z,10.12
2023-03-25T18:05:13.276Z,10.08
2023-03-25T18:07:40.215Z,10.01
2023-03-25T18:10:14.001Z,9.83
2023-03-25T18:12:40.467Z,9.37
2023-03-25T18:15:07.317Z,9.32
2023-03-25T18:17:33.825Z,9.38
2023-03-25T18:20:00.389Z,9.46
2023-03-25T18:22:26.825Z,9.56
2023-03-25T18:24:53.293Z,9.65
2023-03-25T18:27:23.790Z,9.56
2023-03-25T18:29:54.469Z,9.37
2023-03-25T18:32:21.111Z,9.05
2023-03-25T18:34:48.109Z,8.79
2023-03-25T18:37:14.598Z,8.71
2023-03-25T18:39:41.030Z,8.72
2023-03-25T18:42:07.939Z,8.89
2023-03-25T18:44:34.368Z,9.40
2023-03-25T18:47:00.908Z,9.05
2023-03-25T18:49:27.754Z,8.90
2023-03-25T18:51:54.198Z,8.89
2023-03-25T18:54:20.643Z,8.70
2023-03-25T18:56:47.217Z,8.63
2023-03-25T18:59:16.182Z,8.72
2023-03-25T19:01:42.810Z,8.66
2023-03-25T19:04:09.647Z,8.27
2023-03-25T19:06:39.024Z,8.20
2023-03-25T19:09:05.733Z,8.04
2023-03-25T19:11:33.845Z,8.26
2023-03-25T19:14:00.396Z,8.36
2023-03-25T19:16:27.005Z,8.30
2023-03-25T19:18:53.473Z,8.27
2023-03-25T19:21:20.274Z,8.33
2023-03-25T19:23:47.291Z,8.06
2023-03-25T19:26:13.839Z,7.97
2023-03-25T19:28:41.077Z,7.89
2023-03-25T19:31:07.636Z,7.92
2023-03-25T19:33:34.387Z,8.02
2023-03-25T19:36:01.876Z,8.03
2023-03-25T19:38:28.890Z,7.88
2023-03-25T19:41:06.769Z,7.74
2023-03-25T19:43:33.427Z,7.65
2023-03-25T19:46:00.486Z,7.57
2023-03-25T19:48:27.477Z,7.57
2023-03-25T19:50:56.844Z,7.47
2023-03-25T19:53:24.452Z,7.64
2023-03-25T19:55:51.948Z,7.64
2023-03-25T19:58:20.283Z,7.47
2023-03-25T20:00:47.419Z,7.52
2023-03-25T20:03:14.075Z,7.40
2023-03-25T20:05:41.071Z,7.48
2023-03-25T20:08:09.248Z,7.50
2023-03-25T20:10:37.697Z,7.51
2023-03-25T20:13:04.239Z,7.38
2023-03-25T20:15:31.009Z,7.39
2023-03-25T20:17:57.502Z,7.14
2023-03-25T20:20:24.903Z,7.36
2023-03-25T20:22:51.765Z,7.31
2023-03-25T20:25:18.925Z,7.25
2023-03-25T20:27:46.318Z,7.21
2023-03-25T20:30:14.265Z,7.29
2023-03-25T20:32:42.655Z,7.09
2023-03-25T20:35:13.196Z,7.09
2023-03-25T20:37:40.550Z,6.72
2023-03-25T20:40:11.038Z,6.67
2023-03-25T20:42:41.667Z,6.81
2023-03-25T20:45:09.251Z,6.74
2023-03-25T20:47:36.051Z,6.68
2023-03-25T20:50:03.461Z,6.62
2023-03-25T20:52:30.203Z,6.43
2023-03-25T20:54:56.828Z,6.21
2023-03-25T20:57:23.453Z,6.62
2023-03-25T20:59:52.745Z,6.65
2023-03-25T21:02:20.024Z,6.47
2023-03-25T21:04:46.846Z,6.28
2023-03-25T21:07:13.754Z,6.35
2023-03-25T21:09:40.206Z,6.39
2023-03-25T21:12:06.750Z,6.45
2023-03-25T21:14:33.221Z,6.28
2023-03-25T21:16:59.760Z,6.36
2023-03-25T21:19:26.174Z,6.40
2023-03-25T21:21:52.782Z,6.21
2023-03-25T21:24:21.607Z,6.06
2023-03-25T21:26:49.115Z,6.15
2023-03-25T21:29:15.595Z,6.29
2023-03-25T21:31:42.513Z,6.12
2023-03-25T21:34:09.001Z,6.12
2023-03-25T21:36:35.459Z,6.19
2023-03-25T21:39:02.389Z,6.26
2023-03-25T21:41:32.059Z,6.25
2023-03-25T21:43:58.556Z,6.31
2023-03-25T21:46:27.363Z,6.20
2023-03-25T21:48:55.202Z,6.09
2023-03-25T21:51:21.665Z,6.11
2023-03-25T21:53:48.215Z,6.13
2023-03-25T21:56:17.326Z,6.15
2023-03-25T21:58:44.455Z,6.09
2023-03-25T22:01:15.535Z,5.94
2023-03-25T22:03:45.467Z,6.06
2023-03-25T22:06:13.897Z,6.13
2023-03-25T22:08:40.805Z,5.99
2023-03-25T22:11:08.338Z,6.03
2023-03-25T22:13:35.069Z,5.62
2023-03-25T22:16:01.551Z,5.96
2023-03-25T22:18:28.435Z,6.03
2023-03-25T22:21:04.600Z,6.04
2023-03-25T22:23:31.039Z,5.96
2023-03-25T22:25:57.539Z,5.90
2023-03-25T22:28:24.012Z,5.58
2023-03-25T22:30:50.513Z,5.46
2023-03-25T22:33:17.185Z,5.57
2023-03-25T22:35:43.738Z,5.80
2023-03-25T22:38:10.187Z,5.78
2023-03-25T22:40:36.700Z,5.32
2023-03-25T22:43:03.277Z,5.55
2023-03-25T22:45:29.788Z,5.47
2023-03-25T22:47:56.358Z,5.61
2023-03-25T22:50:22.857Z,5.74
2023-03-25T22:52:49.402Z,5.49
2023-03-25T22:55:16.272Z,5.55
2023-03-25T22:57:42.762Z,5.46
2023-03-25T23:00:14.389Z,5.58
2023-03-25T23:02:41.367Z,5.47
2023-03-25T23:05:08.056Z,5.30
2023-03-25T23:07:34.556Z,5.36
2023-03-25T23:10:01.366Z,5.49
2023-03-25T23:12:27.871Z,5.45
2023-03-25T23:14:55.927Z,5.13
2023-03-25T23:17:23.394Z,5.24
2023-03-25T23:19:49.964Z,5.22
2023-03-25T23:22:17.208Z,5.14
2023-03-25T23:24:44.153Z,5.28
2023-03-25T23:27:11.661Z,5.00
2023-03-25T23:29:40.142Z,5.13
2023-03-25T23:32:07.416Z,5.30
2023-03-25T23:34:34.270Z,5.23
2023-03-25T23:37:01.633Z,5.13
2023-03-25T23:39:28.324Z,5.16
2023-03-25T23:41:55.472Z,5.03
2023-03-25T23:44:22.342Z,5.06
2023-03-25T23:46:51.159Z,4.84
2023-03-25T23:49:20.884Z,4.84
2023-03-25T23:51:47.533Z,4.92
2023-03-25T23:54:15.247Z,4.92
2023-03-25T23:56:42.264Z,4.80
2023-03-25T23:59:09.424Z,4.75
